Hauptseite
METAR-TAF:

METAR-TAF

Flughäfen :

Orange, Frankreich

Militärflugplatz Orange-Caritat

Breite: 44-08N, Länge: 004-50E, Höhe: 60 m

Beobachtung

Neuester Wetterbericht von vor 24 Minuten, um 09:30 UTC
Wind 2 kt aus unterschiedlichen Richtungen
Temperatur 21°C
Luftfeuchtigkeit 53%
Luftdruck 1027 hPa
Sichtweite 10 km oder mehr
keine Wolken unter 1500 m und keine Kumulonimbus oder Gewitterwolken

METAR: LFMO 190930Z AUTO VRB02KT CAVOK 21/11 Q1027 NOSIG

Zeit: 11:54 (09:54 UTC)

Prognose

Neuester Wetterbericht von vor 1 Stunde und 54 Minuten, um 08:00 UTC
Gültige Prognose vom 19 um 09 UTC bis 20 um 09 UTC
Wind 3 kt aus unterschiedlichen Richtungen
Sichtweite 10 km oder mehr
keine Wolken unter 1500 m und keine Kumulonimbus oder Gewitterwolken

TAF: LFMO 190800Z 1909/2009 VRB03KT CAVOK

Wetterbeobachtungen und Prognosen von mehr als 4000 Flughäfen (METAR und TAF Bericht).

Die verfügbaren Stationen werden durch gelbe und rote Markierungen auf der Karte dargestellt.

Führen Sie die Maus auf sie, um den Namen der Station zu sehen.

Darauf klicken, um die Beobachtung von Wetterbeobachtungen und Prognosen zu sehen.

Um die Karte zu ändern : klicken Sie auf den grünen Tasten mit einem schwarzen Kreuz Zum Vergrößern, auf den grünen Button mit einem Gedankenstrich zu verkleinern, oder auf die grünen Pfeile für benachbarte Karten.


METAR-TAF: